Time;durP1;ratioP1;P1;durP2;ratioP2;P2;SDS_P1;SDS_P2;PMS_P1;PMS_P2;Temp;Humidity;BMP_temperature;BMP_pressure;BME280_temperature;BME280_humidity;BME280_pressure;Samples;Min_cycle;Max_cycle;Signal;HPM_P1;HPM_P2
2022/04/28 11:26:18;;;;;;;14.20;10.07;;;13.60;99.90;;;;;;5070924;28;20604;-67
2022/04/28 11:28:44;;;;;;;14.98;9.57;;;13.70;99.90;;;;;;5069817;28;20172;-67
2022/04/28 11:31:16;;;;;;;13.40;9.70;;;13.80;99.90;;;;;;5070907;28;20171;-67
2022/04/28 11:33:45;;;;;;;11.30;9.18;;;13.90;99.90;;;;;;5070910;28;20602;-67
2022/04/28 11:36:28;;;;;;;13.70;10.55;;;13.90;99.90;;;;;;5070812;28;20504;-67
2022/04/28 11:38:55;;;;;;;16.10;9.57;;;14.00;99.90;;;;;;5070737;28;20165;-67
2022/04/28 11:41:29;;;;;;;14.38;10.50;;;14.00;99.90;;;;;;5070687;28;20169;-67
2022/04/28 11:43:59;;;;;;;11.45;9.50;;;14.10;99.90;;;;;;5070605;28;20511;-67
2022/04/28 11:46:24;;;;;;;13.60;9.70;;;14.20;99.90;;;;;;5070839;28;20164;-67
2022/04/28 11:48:53;;;;;;;9.68;8.65;;;14.30;99.90;;;;;;5070593;28;20649;-67
2022/04/28 11:51:23;;;;;;;14.23;10.05;;;14.40;99.90;;;;;;5070714;28;20248;-67
2022/04/28 11:53:49;;;;;;;13.20;9.23;;;14.40;99.90;;;;;;5070397;28;20173;-67
2022/04/28 11:56:29;;;;;;;10.07;9.02;;;14.40;99.90;;;;;;5070569;28;20238;-67
2022/04/28 11:58:55;;;;;;;14.07;10.00;;;14.50;99.90;;;;;;5070327;28;20169;-67
2022/04/28 12:01:22;;;;;;;11.77;9.02;;;14.60;99.90;;;;;;5070265;28;20218;-67
2022/04/28 12:03:56;;;;;;;12.32;9.00;;;14.70;99.90;;;;;;5070316;28;20169;-67
2022/04/28 12:06:23;;;;;;;16.15;8.68;;;14.70;99.90;;;;;;5070212;28;20172;-67
2022/04/28 12:08:54;;;;;;;12.15;8.75;;;14.90;99.90;;;;;;5069056;28;20657;-67
2022/04/28 12:20:04;;;;;;;9.82;8.52;;;15.30;99.90;;;;;;5070151;28;20230;-67
2022/04/28 12:22:40;;;;;;;13.05;8.48;;;15.30;99.90;;;;;;5070078;28;20234;-67
2022/04/28 12:25:06;;;;;;;12.82;9.77;;;15.40;99.90;;;;;;5069661;28;20283;-67
2022/04/28 12:27:41;;;;;;;14.43;8.95;;;15.50;99.90;;;;;;5069801;28;20525;-67
2022/04/28 12:30:08;;;;;;;15.60;8.90;;;15.60;99.90;;;;;;5069728;28;20537;-67
2022/04/28 12:32:45;;;;;;;13.57;9.10;;;15.60;99.90;;;;;;5069513;28;20168;-67
2022/04/28 12:35:32;;;;;;;10.57;7.72;;;15.50;99.90;;;;;;5069698;28;20222;-67
2022/04/28 12:38:06;;;;;;;11.63;7.85;;;15.50;99.90;;;;;;5056082;28;20196;-67
2022/04/28 12:40:42;;;;;;;12.45;9.48;;;15.70;99.90;;;;;;5056393;28;20638;-67
2022/04/28 12:43:09;;;;;;;13.32;8.63;;;15.70;99.90;;;;;;5056113;28;20175;-67
2022/04/28 12:45:42;;;;;;;8.80;8.10;;;15.90;99.90;;;;;;5056233;28;20228;-68
2022/04/28 12:48:35;;;;;;;10.95;7.80;;;15.90;99.90;;;;;;5056294;28;20550;-67
2022/04/28 12:51:17;;;;;;;14.20;9.32;;;16.10;99.90;;;;;;5055380;28;20662;-68
2022/04/28 12:53:46;;;;;;;9.50;8.60;;;16.30;99.90;;;;;;5056156;28;20172;-68
2022/04/28 12:56:15;;;;;;;15.75;9.43;;;16.30;99.90;;;;;;5055982;28;20672;-68
2022/04/28 12:58:46;;;;;;;9.80;8.23;;;16.50;99.90;;;;;;5055986;28;20555;-68
2022/04/28 13:01:14;;;;;;;11.52;9.07;;;16.60;99.90;;;;;;5054673;28;20173;-67
2022/04/28 13:03:41;;;;;;;12.20;10.50;;;16.80;99.90;;;;;;5054632;28;20539;-67
2022/04/28 13:06:08;;;;;;;10.77;9.02;;;17.10;99.90;;;;;;5055822;28;20212;-68
2022/04/28 13:08:34;;;;;;;10.52;9.32;;;17.30;99.90;;;;;;5055902;28;20184;-67
2022/04/28 13:11:01;;;;;;;10.82;9.50;;;17.40;99.90;;;;;;5055771;28;20161;-68
2022/04/28 13:13:27;;;;;;;12.45;9.45;;;17.20;99.90;;;;;;5055710;28;20177;-68
2022/04/28 13:15:53;;;;;;;10.52;9.52;;;17.10;99.90;;;;;;5055619;28;20177;-68
2022/04/28 13:18:18;;;;;;;12.65;8.80;;;17.10;99.90;;;;;;5055612;28;20180;-68
2022/04/28 13:20:44;;;;;;;9.63;8.65;;;17.10;99.90;;;;;;5055572;28;20230;-67
2022/04/28 13:23:11;;;;;;;14.18;9.32;;;17.30;99.90;;;;;;5055591;28;20264;-68
2022/04/28 13:25:36;;;;;;;9.98;8.70;;;17.50;99.90;;;;;;5055334;28;20217;-68
2022/04/28 13:28:02;;;;;;;11.85;10.10;;;17.80;99.90;;;;;;5055484;28;20176;-67
2022/04/28 13:30:28;;;;;;;13.65;10.68;;;18.00;99.90;;;;;;5055296;28;20184;-68
2022/04/28 13:32:53;;;;;;;12.20;9.73;;;18.20;99.90;;;;;;5055268;28;20218;-68
2022/04/28 13:35:19;;;;;;;14.23;9.98;;;18.40;99.90;;;;;;5055199;28;20267;-68
2022/04/28 13:37:44;;;;;;;21.10;10.73;;;18.30;99.90;;;;;;5055327;28;20242;-68
2022/04/28 13:40:10;;;;;;;13.13;10.45;;;18.60;99.90;;;;;;5055285;28;20172;-68
2022/04/28 13:42:36;;;;;;;16.77;10.80;;;18.30;99.90;;;;;;5055241;28;20164;-68
2022/04/28 13:45:02;;;;;;;16.65;10.18;;;18.40;99.90;;;;;;5055080;28;20192;-68
2022/04/28 13:47:28;;;;;;;12.82;9.80;;;18.40;99.90;;;;;;5054420;28;20176;-67
2022/04/28 13:49:55;;;;;;;13.00;10.48;;;18.40;99.90;;;;;;5054616;28;20172;-67
2022/04/28 13:52:22;;;;;;;14.50;10.80;;;18.30;99.90;;;;;;5055186;28;20218;-68
2022/04/28 13:54:47;;;;;;;13.18;10.50;;;18.50;99.90;;;;;;5054862;28;20172;-68
2022/04/28 13:57:13;;;;;;;15.20;10.00;;;18.50;99.90;;;;;;5054716;28;20630;-67
2022/04/28 13:59:39;;;;;;;15.40;9.45;;;18.80;99.90;;;;;;5053356;28;20261;-67
2022/04/28 14:02:05;;;;;;;15.90;10.43;;;18.90;99.90;;;;;;5054752;28;20237;-68
2022/04/28 14:04:31;;;;;;;14.63;8.80;;;18.90;99.90;;;;;;5054438;28;20283;-67
2022/04/28 14:06:57;;;;;;;13.60;9.95;;;19.00;99.90;;;;;;5054651;28;20190;-67
2022/04/28 14:09:23;;;;;;;15.13;10.18;;;19.10;99.90;;;;;;5054511;28;20219;-67
2022/04/28 14:11:51;;;;;;;12.60;10.65;;;19.00;99.90;;;;;;5054457;28;20196;-67
2022/04/28 14:14:17;;;;;;;16.55;10.48;;;18.80;99.90;;;;;;5054551;28;20168;-67
2022/04/28 14:16:42;;;;;;;14.70;9.32;;;18.70;99.90;;;;;;5054357;28;20173;-66
2022/04/28 14:19:08;;;;;;;16.13;10.30;;;18.80;99.90;;;;;;5054336;28;20683;-66
2022/04/28 14:21:34;;;;;;;11.55;8.60;;;18.90;99.90;;;;;;5054126;28;20515;-66
2022/04/28 14:24:00;;;;;;;11.38;8.73;;;19.10;99.90;;;;;;5054111;28;20172;-66
2022/04/28 14:26:26;;;;;;;11.98;9.05;;;19.10;99.90;;;;;;5054020;28;20175;-66
2022/04/28 14:28:52;;;;;;;14.25;9.18;;;19.10;99.90;;;;;;5053951;28;20554;-66
2022/04/28 14:31:17;;;;;;;9.43;8.57;;;19.30;99.90;;;;;;5053866;28;20169;-66
2022/04/28 14:33:43;;;;;;;9.40;8.50;;;19.40;99.90;;;;;;5053924;28;20164;-66
2022/04/28 14:36:09;;;;;;;16.02;9.35;;;19.50;99.90;;;;;;5053571;28;20199;-66
2022/04/28 14:38:36;;;;;;;10.55;9.55;;;19.20;99.90;;;;;;5053792;28;20259;-66
2022/04/28 14:41:03;;;;;;;14.18;9.07;;;19.50;99.90;;;;;;5053723;28;20221;-66
2022/04/28 14:43:28;;;;;;;10.90;8.18;;;19.80;99.90;;;;;;5053757;28;20251;-66
2022/04/28 14:45:55;;;;;;;11.60;10.27;;;20.00;99.90;;;;;;5053579;28;20326;-66
2022/04/28 14:48:21;;;;;;;11.30;8.45;;;20.00;99.90;;;;;;5053626;28;20226;-67
2022/04/28 14:53:32;;;;;;;9.30;8.40;;;20.20;99.90;;;;;;5053600;28;20657;-68
2022/04/28 14:55:58;;;;;;;11.98;8.57;;;20.00;99.90;;;;;;5053719;28;20524;-68
2022/04/28 14:58:24;;;;;;;11.30;8.65;;;19.90;99.90;;;;;;5053734;28;20169;-68
2022/04/28 15:00:50;;;;;;;12.55;8.45;;;19.70;99.90;;;;;;5052387;28;20212;-64
2022/04/28 15:03:16;;;;;;;13.98;9.10;;;19.50;99.90;;;;;;5053945;28;20165;-67
2022/04/28 15:05:42;;;;;;;11.30;9.95;;;19.50;99.90;;;;;;5053593;28;20672;-71
2022/04/28 15:08:07;;;;;;;8.95;8.02;;;19.60;99.90;;;;;;5053631;28;20177;-71
2022/04/28 15:10:33;;;;;;;8.93;8.02;;;19.80;99.90;;;;;;5053659;28;20168;-70
2022/04/28 15:12:59;;;;;;;11.13;7.90;;;20.20;99.90;;;;;;5053465;28;20193;-70
2022/04/28 15:15:25;;;;;;;16.08;8.98;;;20.40;99.90;;;;;;5053573;28;20170;-71
2022/04/28 15:17:52;;;;;;;9.55;8.68;;;20.50;99.90;;;;;;5053546;28;20200;-70
2022/04/28 15:20:18;;;;;;;13.57;9.68;;;20.60;99.90;;;;;;5053563;28;20187;-71
2022/04/28 15:22:44;;;;;;;13.07;9.20;;;20.60;99.90;;;;;;5053552;28;20169;-71
2022/04/28 15:25:13;;;;;;;10.48;8.75;;;20.30;99.90;;;;;;5053228;28;20217;-71
2022/04/28 15:27:40;;;;;;;87.55;11.95;;;20.10;99.90;;;;;;5053417;28;20169;-71
2022/04/28 15:30:08;;;;;;;12.73;8.82;;;20.10;99.90;;;;;;5052298;28;20221;-71
2022/04/28 15:32:37;;;;;;;11.10;8.88;;;20.20;99.90;;;;;;5053401;28;20653;-71
2022/04/28 15:35:03;;;;;;;12.75;9.25;;;20.40;99.90;;;;;;5053401;28;20183;-71
2022/04/28 15:37:29;;;;;;;19.70;9.05;;;20.30;99.90;;;;;;5053345;28;20172;-71
2022/04/28 15:39:54;;;;;;;9.10;8.13;;;20.30;99.90;;;;;;5053265;28;20179;-71
2022/04/28 15:42:20;;;;;;;10.20;8.40;;;20.30;99.90;;;;;;5053354;28;20275;-71
2022/04/28 15:44:46;;;;;;;12.98;7.70;;;20.30;99.90;;;;;;5053240;28;20192;-70
2022/04/28 15:47:11;;;;;;;19.17;8.13;;;20.50;99.90;;;;;;5053227;28;20226;-70
2022/04/28 15:49:37;;;;;;;11.93;8.25;;;20.60;99.90;;;;;;5053371;28;20615;-70
2022/04/28 15:52:03;;;;;;;8.75;8.05;;;20.60;99.90;;;;;;5052019;28;20510;-70
2022/04/28 15:54:29;;;;;;;8.30;7.47;;;20.70;99.90;;;;;;5053061;28;20176;-70
2022/04/28 15:56:55;;;;;;;11.63;8.27;;;20.80;99.90;;;;;;5053058;28;20243;-70
2022/04/28 15:59:20;;;;;;;8.32;7.55;;;20.90;99.90;;;;;;5053325;28;20263;-70
2022/04/28 16:01:46;;;;;;;9.82;8.27;;;20.90;99.90;;;;;;5053013;28;20169;-71
2022/04/28 16:04:12;;;;;;;13.57;9.00;;;20.70;99.90;;;;;;5053177;28;20173;-71
2022/04/28 16:06:38;;;;;;;11.20;8.50;;;20.80;99.90;;;;;;5053128;28;20534;-71
2022/04/28 16:09:03;;;;;;;8.90;8.00;;;20.70;99.90;;;;;;5053095;28;20214;-71
2022/04/28 16:11:29;;;;;;;13.50;7.57;;;20.70;99.90;;;;;;5054078;28;20721;-71
2022/04/28 16:13:55;;;;;;;11.30;8.98;;;20.60;99.90;;;;;;5056773;28;20188;-71
2022/04/28 16:16:22;;;;;;;12.50;9.00;;;20.80;99.90;;;;;;5056675;28;20637;-71
2022/04/28 16:18:48;;;;;;;12.35;8.98;;;20.60;99.90;;;;;;5056363;28;20184;-71
2022/04/28 16:21:15;;;;;;;9.38;8.00;;;20.80;99.90;;;;;;5056362;28;20172;-71
2022/04/28 16:23:41;;;;;;;12.18;8.40;;;20.90;99.90;;;;;;5056277;28;20234;-71
2022/04/28 16:26:07;;;;;;;14.68;9.43;;;21.10;99.90;;;;;;5056130;28;20220;-72
2022/04/28 16:28:33;;;;;;;11.85;9.18;;;20.90;99.90;;;;;;5056228;28;20179;-71
2022/04/28 16:31:00;;;;;;;14.02;9.35;;;20.80;99.90;;;;;;5055023;28;20651;-70
2022/04/28 16:33:26;;;;;;;14.35;9.30;;;20.60;99.90;;;;;;5054673;28;20169;-71
2022/04/28 16:35:53;;;;;;;15.90;10.35;;;20.60;99.90;;;;;;5056265;28;20175;-71
2022/04/28 16:38:19;;;;;;;11.73;10.52;;;20.60;99.90;;;;;;5055350;28;20520;-71
2022/04/28 16:40:44;;;;;;;12.60;10.40;;;20.70;99.90;;;;;;5056493;28;20598;-71
2022/04/28 16:43:11;;;;;;;13.10;10.00;;;20.80;99.90;;;;;;5056249;28;20224;-71
2022/04/28 16:45:36;;;;;;;18.05;10.82;;;20.90;99.90;;;;;;5056105;28;20232;-71
2022/04/28 16:48:02;;;;;;;17.13;11.60;;;20.90;99.90;;;;;;5056291;28;20195;-71
2022/04/28 16:50:28;;;;;;;13.20;10.50;;;20.80;99.90;;;;;;5056162;28;20594;-71
2022/04/28 16:52:53;;;;;;;18.45;10.90;;;20.70;99.90;;;;;;5055975;28;20183;-70
2022/04/28 16:55:19;;;;;;;15.43;10.20;;;20.20;99.90;;;;;;5055877;28;20200;-70
2022/04/28 16:57:45;;;;;;;19.42;10.98;;;20.00;99.90;;;;;;5055990;28;20618;-70
2022/04/28 17:00:12;;;;;;;18.73;11.25;;;19.60;99.90;;;;;;5056110;28;20176;-70
2022/04/28 17:05:23;;;;;;;16.17;10.85;;;19.20;99.90;;;;;;5055762;28;20295;-70
2022/04/28 17:07:50;;;;;;;13.40;10.75;;;19.20;99.90;;;;;;5055679;28;20516;-70
2022/04/28 17:10:17;;;;;;;16.23;11.05;;;19.20;99.90;;;;;;5055782;28;20207;-70
2022/04/28 17:12:44;;;;;;;15.48;10.32;;;18.90;99.90;;;;;;5054697;28;20196;-70
2022/04/28 17:15:10;;;;;;;13.10;10.40;;;18.60;99.90;;;;;;5054604;28;20242;-70
2022/04/28 17:17:35;;;;;;;11.40;9.35;;;18.20;99.90;;;;;;5055513;28;20172;-70
2022/04/28 17:20:01;;;;;;;12.98;10.48;;;18.00;99.90;;;;;;5055524;28;20176;-70
2022/04/28 17:22:27;;;;;;;15.18;9.93;;;17.80;99.90;;;;;;5055671;28;20200;-71
2022/04/28 17:24:52;;;;;;;20.92;11.30;;;17.70;99.90;;;;;;5055108;28;20216;-70
2022/04/28 17:27:18;;;;;;;19.23;10.23;;;17.60;99.90;;;;;;5055504;28;20621;-70
2022/04/28 17:29:44;;;;;;;14.50;10.77;;;17.70;99.90;;;;;;5055392;28;20165;-70
2022/04/28 17:32:12;;;;;;;18.80;10.18;;;17.60;99.90;;;;;;5055255;28;20167;-70
2022/04/28 17:34:40;;;;;;;10.88;9.60;;;17.40;99.90;;;;;;5055109;28;20759;-70
2022/04/28 17:37:05;;;;;;;15.95;9.93;;;17.40;99.90;;;;;;5055279;28;20230;-70
2022/04/28 17:39:32;;;;;;;20.90;9.75;;;17.40;99.90;;;;;;5053831;28;20180;-70
2022/04/28 17:41:58;;;;;;;15.48;10.38;;;17.60;99.90;;;;;;5055100;28;20168;-70
2022/04/28 17:44:24;;;;;;;13.60;9.95;;;17.80;99.90;;;;;;5054960;28;20180;-70
2022/04/28 17:46:50;;;;;;;17.98;9.77;;;17.80;99.90;;;;;;5055080;28;20298;-70
2022/04/28 17:49:15;;;;;;;14.05;8.65;;;17.80;99.90;;;;;;5054898;28;20176;-70
2022/04/28 17:51:43;;;;;;;15.82;9.38;;;17.80;99.90;;;;;;5054909;28;20172;-70
2022/04/28 17:54:10;;;;;;;19.80;10.32;;;17.50;99.90;;;;;;5054922;28;20160;-70
2022/04/28 18:02:04;;;;;;;22.67;10.73;;;16.70;99.90;;;;;;5054938;28;20212;-71
2022/04/28 18:04:30;;;;;;;17.27;10.93;;;16.50;99.90;;;;;;5054704;28;20595;-70
2022/04/28 18:06:56;;;;;;;12.45;9.90;;;16.20;99.90;;;;;;5054606;28;20240;-70
2022/04/28 18:09:22;;;;;;;13.88;10.55;;;16.00;99.90;;;;;;5054519;28;20239;-70
2022/04/28 18:11:48;;;;;;;13.02;9.32;;;15.80;99.90;;;;;;5053390;28;20208;-70
2022/04/28 18:14:13;;;;;;;14.80;10.32;;;15.70;99.90;;;;;;5054418;28;20168;-70
2022/04/28 18:16:39;;;;;;;13.65;9.35;;;15.50;99.90;;;;;;5054362;28;20271;-70
2022/04/28 18:19:06;;;;;;;16.58;10.52;;;15.30;99.90;;;;;;5054546;28;20170;-70
2022/04/28 18:21:32;;;;;;;13.35;9.90;;;15.10;99.90;;;;;;5054277;28;20659;-70
2022/04/28 18:23:57;;;;;;;13.25;8.27;;;15.00;99.90;;;;;;5054096;28;20165;-70
2022/04/28 18:26:23;;;;;;;16.95;9.95;;;14.90;99.90;;;;;;5054094;28;20696;-70
2022/04/28 18:28:49;;;;;;;13.32;9.40;;;14.70;99.90;;;;;;5054092;28;20193;-70
2022/04/28 18:31:15;;;;;;;16.80;9.88;;;14.60;99.90;;;;;;5053041;28;20212;-70
2022/04/28 18:33:41;;;;;;;13.75;9.05;;;14.40;99.90;;;;;;5052442;28;20173;-70
